createdAt,value
2023-05-06T00:00:08.264Z,11.48
2023-05-06T00:02:44.436Z,11.98
2023-05-06T00:05:12.966Z,11.52
2023-05-06T00:07:41.922Z,14.20
2023-05-06T00:10:10.831Z,12.40
2023-05-06T00:12:40.747Z,11.98
2023-05-06T00:15:09.599Z,13.48
2023-05-06T00:17:38.227Z,10.65
2023-05-06T00:20:09.595Z,12.30
2023-05-06T00:22:37.942Z,12.50
2023-05-06T00:25:07.129Z,11.57
2023-05-06T00:27:35.640Z,12.45
2023-05-06T00:30:06.145Z,11.90
2023-05-06T00:32:34.955Z,12.00
2023-05-06T00:35:04.404Z,11.88
2023-05-06T00:37:32.846Z,13.05
2023-05-06T00:40:01.329Z,11.65
2023-05-06T00:42:29.642Z,11.25
2023-05-06T00:44:57.934Z,11.53
2023-05-06T00:47:27.853Z,11.38
2023-05-06T00:49:56.332Z,11.63
2023-05-06T00:52:24.647Z,10.48
2023-05-06T00:54:53.159Z,11.30
2023-05-06T00:57:22.035Z,11.43
2023-05-06T00:59:50.262Z,13.43
2023-05-06T01:02:18.723Z,10.55
2023-05-06T01:04:48.514Z,11.35
2023-05-06T01:07:26.108Z,10.90
2023-05-06T01:09:58.603Z,12.63
2023-05-06T01:12:33.636Z,10.60
2023-05-06T01:15:06.503Z,11.45
2023-05-06T01:17:40.918Z,11.95
2023-05-06T01:20:12.719Z,10.82
2023-05-06T01:22:41.461Z,9.77
2023-05-06T01:25:19.299Z,10.45
2023-05-06T01:27:47.976Z,13.15
2023-05-06T01:30:18.098Z,11.23
2023-05-06T01:32:55.176Z,10.68
2023-05-06T01:35:33.892Z,11.63
2023-05-06T01:38:14.473Z,11.15
2023-05-06T01:40:49.074Z,12.05
2023-05-06T01:43:19.803Z,12.70
2023-05-06T01:45:53.498Z,10.27
2023-05-06T01:48:25.297Z,10.87
2023-05-06T01:50:53.637Z,9.30
2023-05-06T01:53:22.214Z,9.00
2023-05-06T01:55:51.808Z,9.20
2023-05-06T01:58:20.119Z,10.43
2023-05-06T02:00:48.372Z,9.43
2023-05-06T02:03:17.159Z,10.00
2023-05-06T02:05:45.653Z,8.40
2023-05-06T02:08:13.901Z,9.18
2023-05-06T02:10:43.430Z,8.75
2023-05-06T02:13:13.625Z,8.87
2023-05-06T02:15:42.156Z,9.45
2023-05-06T02:18:15.409Z,8.77
2023-05-06T02:20:43.683Z,10.40
2023-05-06T02:23:18.061Z,9.07
2023-05-06T02:25:48.061Z,12.47
2023-05-06T02:28:17.826Z,10.57
2023-05-06T02:30:46.207Z,13.07
2023-05-06T02:33:14.517Z,10.30
2023-05-06T02:35:42.818Z,11.20
2023-05-06T02:38:11.150Z,12.97
2023-05-06T02:40:39.459Z,13.77
2023-05-06T02:43:07.825Z,13.05
2023-05-06T02:45:37.650Z,11.90
2023-05-06T02:48:06.622Z,12.70
2023-05-06T02:50:36.120Z,12.17
2023-05-06T02:53:04.475Z,13.05
2023-05-06T02:55:32.825Z,12.13
2023-05-06T02:58:01.168Z,11.48
2023-05-06T03:00:29.529Z,11.65
2023-05-06T03:02:59.272Z,10.37
2023-05-06T03:05:27.950Z,11.05
2023-05-06T03:07:56.476Z,12.82
2023-05-06T03:10:25.102Z,11.63
2023-05-06T03:12:53.469Z,11.48
2023-05-06T03:15:21.876Z,12.73
2023-05-06T03:17:50.352Z,11.73
2023-05-06T03:20:20.422Z,13.63
2023-05-06T03:22:53.288Z,11.27
2023-05-06T03:25:23.209Z,13.20
2023-05-06T03:27:52.344Z,12.30
2023-05-06T03:30:23.467Z,12.75
2023-05-06T03:32:56.186Z,15.18
2023-05-06T03:35:31.681Z,12.50
2023-05-06T03:38:01.889Z,13.35
2023-05-06T03:40:38.655Z,12.03
2023-05-06T03:43:08.610Z,11.85
2023-05-06T03:45:38.107Z,12.18
2023-05-06T03:48:07.363Z,11.10
2023-05-06T03:50:40.716Z,12.98
2023-05-06T03:53:09.291Z,12.77
2023-05-06T03:55:40.858Z,11.23
2023-05-06T03:58:10.384Z,12.57
2023-05-06T04:00:38.696Z,15.25
2023-05-06T04:03:08.101Z,12.07
2023-05-06T04:05:44.889Z,16.17
2023-05-06T04:08:14.926Z,13.90
2023-05-06T04:10:43.327Z,14.10
2023-05-06T04:13:19.743Z,12.43
2023-05-06T04:15:49.464Z,11.55
2023-05-06T04:18:22.680Z,12.30
2023-05-06T04:21:01.797Z,12.38
2023-05-06T04:23:32.250Z,12.45
2023-05-06T04:26:01.284Z,14.15
2023-05-06T04:28:32.273Z,13.02
2023-05-06T04:31:02.316Z,12.90
2023-05-06T04:33:41.310Z,11.30
2023-05-06T04:36:14.796Z,12.73
2023-05-06T04:38:52.858Z,11.52
2023-05-06T04:41:22.270Z,11.57
2023-05-06T04:43:50.954Z,12.37
2023-05-06T04:46:24.170Z,12.18
2023-05-06T04:48:54.281Z,9.98
2023-05-06T04:51:24.782Z,10.93
2023-05-06T04:53:53.323Z,10.27
2023-05-06T04:56:21.575Z,9.97
2023-05-06T04:58:51.492Z,9.50
2023-05-06T05:01:21.013Z,8.60
2023-05-06T05:03:49.813Z,8.85
2023-05-06T05:06:20.999Z,8.52
2023-05-06T05:08:51.633Z,10.67
2023-05-06T05:11:20.330Z,8.88
2023-05-06T05:13:49.142Z,8.00
2023-05-06T05:16:18.139Z,8.65
2023-05-06T05:18:48.203Z,8.10
2023-05-06T05:21:22.243Z,7.90
2023-05-06T05:23:52.293Z,7.75
2023-05-06T05:26:20.898Z,8.70
2023-05-06T05:28:51.273Z,8.43
2023-05-06T05:31:20.059Z,10.38
2023-05-06T05:33:49.388Z,9.30
2023-05-06T05:36:21.109Z,9.45
2023-05-06T05:38:53.781Z,8.23
2023-05-06T05:41:25.567Z,8.57
2023-05-06T05:43:55.456Z,7.25
2023-05-06T05:46:24.395Z,8.47
2023-05-06T05:48:53.477Z,8.35
2023-05-06T05:51:24.000Z,8.80
2023-05-06T05:53:54.307Z,7.70
2023-05-06T05:56:24.760Z,8.13
2023-05-06T05:58:53.219Z,7.20
2023-05-06T06:01:21.725Z,8.75
2023-05-06T06:03:50.748Z,7.40
2023-05-06T06:06:19.479Z,7.40
2023-05-06T06:08:48.344Z,8.27
2023-05-06T06:11:18.128Z,7.57
2023-05-06T06:13:46.678Z,7.50
2023-05-06T06:16:16.508Z,8.00
2023-05-06T06:18:45.052Z,7.07
2023-05-06T06:21:13.614Z,8.00
2023-05-06T06:23:42.371Z,7.50
2023-05-06T06:26:12.496Z,10.57
2023-05-06T06:28:44.694Z,8.55
2023-05-06T06:31:13.217Z,8.60
2023-05-06T06:33:42.059Z,8.90
2023-05-06T06:36:10.900Z,10.43
2023-05-06T06:38:41.505Z,11.63
2023-05-06T06:41:11.488Z,9.82
2023-05-06T06:43:40.088Z,12.50
2023-05-06T06:46:19.906Z,10.80
2023-05-06T06:48:49.765Z,11.67
2023-05-06T06:51:18.222Z,10.98
2023-05-06T06:53:48.357Z,11.63
2023-05-06T06:56:17.217Z,11.93
2023-05-06T06:58:45.565Z,12.80
2023-05-06T07:01:14.053Z,12.17
2023-05-06T07:03:44.869Z,13.27
2023-05-06T07:06:14.041Z,13.20
2023-05-06T07:08:43.042Z,12.65
2023-05-06T07:11:14.785Z,13.73
2023-05-06T07:13:43.231Z,12.50
2023-05-06T07:16:11.667Z,13.85
2023-05-06T07:18:40.230Z,12.48
2023-05-06T07:21:10.109Z,11.73
2023-05-06T07:23:41.740Z,12.65
2023-05-06T07:26:11.011Z,14.13
2023-05-06T07:28:39.647Z,12.80
2023-05-06T07:31:08.193Z,13.02
2023-05-06T07:33:36.831Z,14.60
2023-05-06T07:36:05.646Z,13.73
2023-05-06T07:38:35.728Z,13.97
2023-05-06T07:41:05.739Z,13.77
2023-05-06T07:43:34.495Z,13.15
2023-05-06T07:46:03.622Z,12.90
2023-05-06T07:48:32.783Z,15.38
2023-05-06T07:51:01.985Z,14.10
2023-05-06T07:53:30.496Z,15.80
2023-05-06T07:56:02.361Z,14.05
2023-05-06T07:58:32.724Z,13.43
2023-05-06T08:01:01.301Z,12.25
2023-05-06T08:03:29.892Z,13.93
2023-05-06T08:05:58.709Z,12.77
2023-05-06T08:08:28.470Z,12.05
2023-05-06T08:10:57.146Z,12.57
2023-05-06T08:13:28.228Z,13.88
2023-05-06T08:15:57.349Z,12.90
2023-05-06T08:18:25.906Z,13.73
2023-05-06T08:20:55.035Z,11.25
2023-05-06T08:23:23.710Z,12.13
2023-05-06T08:25:52.298Z,14.13
2023-05-06T08:28:22.111Z,11.73
2023-05-06T08:30:52.923Z,11.80
2023-05-06T08:33:21.333Z,11.68
2023-05-06T08:35:51.036Z,12.40
2023-05-06T08:38:19.487Z,10.27
2023-05-06T08:40:50.445Z,11.63
2023-05-06T08:43:21.752Z,11.38
2023-05-06T08:45:52.321Z,10.95
2023-05-06T08:48:20.636Z,12.63
2023-05-06T08:50:50.604Z,10.50
2023-05-06T08:53:19.171Z,13.87
2023-05-06T08:55:50.648Z,10.85
2023-05-06T08:58:20.438Z,10.60
2023-05-06T09:00:49.307Z,10.60
2023-05-06T09:03:19.319Z,10.77
2023-05-06T09:05:47.740Z,10.60
2023-05-06T09:08:16.313Z,11.05
2023-05-06T09:10:46.227Z,10.00
2023-05-06T09:13:15.637Z,9.73
2023-05-06T09:15:47.417Z,8.65
2023-05-06T09:18:16.635Z,9.00
2023-05-06T09:20:47.639Z,7.28
2023-05-06T09:23:17.768Z,9.13
2023-05-06T09:25:49.783Z,8.23
2023-05-06T09:28:18.407Z,8.05
2023-05-06T09:30:47.829Z,9.37
2023-05-06T09:33:16.805Z,7.55
2023-05-06T09:35:46.638Z,8.73
2023-05-06T09:38:15.140Z,7.78
2023-05-06T09:40:43.974Z,7.15
2023-05-06T09:43:15.712Z,6.80
2023-05-06T09:45:45.014Z,7.22
2023-05-06T09:48:13.654Z,7.38
2023-05-06T09:50:43.885Z,6.70
2023-05-06T09:53:15.078Z,6.28
2023-05-06T09:55:43.970Z,5.90
2023-05-06T09:58:13.329Z,5.25
2023-05-06T10:00:42.891Z,6.45
2023-05-06T10:03:12.914Z,6.75
2023-05-06T10:05:42.114Z,7.05
2023-05-06T10:08:11.100Z,8.47
2023-05-06T10:10:43.158Z,8.02
2023-05-06T10:13:11.649Z,7.28
2023-05-06T10:15:40.157Z,7.20
2023-05-06T10:18:10.806Z,8.50
2023-05-06T10:20:42.738Z,6.27
2023-05-06T10:23:18.164Z,5.10
2023-05-06T10:25:52.259Z,6.32
2023-05-06T10:28:30.645Z,6.15
2023-05-06T10:31:00.910Z,6.30
2023-05-06T10:33:30.496Z,6.90
2023-05-06T10:36:08.006Z,8.88
2023-05-06T10:38:41.888Z,5.53
2023-05-06T10:41:12.330Z,4.97
2023-05-06T10:43:42.432Z,5.18
2023-05-06T10:46:12.465Z,5.70
2023-05-06T10:49:01.296Z,5.65
2023-05-06T10:51:29.923Z,4.05
2023-05-06T10:54:03.901Z,4.45
2023-05-06T10:56:36.222Z,4.22
2023-05-06T10:59:08.093Z,5.57
2023-05-06T11:01:37.009Z,5.70
2023-05-06T11:04:10.036Z,4.72
2023-05-06T11:06:43.273Z,4.60
2023-05-06T11:09:19.066Z,4.70
2023-05-06T11:12:02.676Z,4.27
2023-05-06T11:14:35.452Z,4.65
2023-05-06T11:17:05.344Z,4.13
2023-05-06T11:19:34.812Z,5.28
2023-05-06T11:22:04.614Z,4.35
2023-05-06T11:24:40.323Z,4.93
2023-05-06T11:27:11.273Z,6.85
2023-05-06T11:29:39.577Z,5.18
2023-05-06T11:32:23.371Z,5.90
2023-05-06T11:34:55.968Z,4.78
2023-05-06T11:37:28.658Z,4.07
2023-05-06T11:39:57.061Z,4.63
2023-05-06T11:42:28.274Z,4.78
2023-05-06T11:44:56.876Z,4.00
2023-05-06T11:47:25.308Z,5.28
2023-05-06T11:49:55.166Z,6.33
2023-05-06T11:52:23.483Z,5.55
2023-05-06T11:54:54.060Z,5.10
2023-05-06T11:57:22.313Z,5.25
2023-05-06T11:59:55.505Z,6.60
2023-05-06T12:02:23.854Z,6.40
2023-05-06T12:04:52.859Z,7.07
2023-05-06T12:07:21.283Z,7.90
2023-05-06T12:09:51.196Z,6.68
2023-05-06T12:12:22.460Z,6.78
2023-05-06T12:14:54.269Z,7.90
2023-05-06T12:17:22.851Z,6.38
2023-05-06T12:19:51.866Z,5.60
2023-05-06T12:22:22.768Z,5.38
2023-05-06T12:24:51.151Z,4.82
2023-05-06T12:27:33.190Z,4.80
2023-05-06T12:30:04.910Z,5.50
2023-05-06T12:32:34.341Z,5.13
2023-05-06T12:35:05.949Z,4.72
2023-05-06T12:37:34.463Z,5.45
2023-05-06T12:40:03.721Z,5.70
2023-05-06T12:42:33.003Z,5.40
2023-05-06T12:45:14.595Z,6.40
2023-05-06T12:47:53.567Z,6.75
2023-05-06T12:50:36.880Z,4.70
2023-05-06T12:53:06.601Z,9.83
2023-05-06T12:55:36.640Z,5.97
2023-05-06T12:58:05.255Z,7.18
2023-05-06T13:00:35.013Z,5.60
2023-05-06T13:03:03.314Z,7.70
2023-05-06T13:05:31.644Z,6.77
2023-05-06T13:07:59.837Z,6.20
2023-05-06T13:10:28.130Z,4.97
2023-05-06T13:12:56.510Z,6.22
2023-05-06T13:15:25.456Z,7.82
2023-05-06T13:17:57.264Z,5.17
2023-05-06T13:20:25.797Z,7.40
2023-05-06T13:22:55.322Z,5.50
2023-05-06T13:25:23.913Z,4.80
2023-05-06T13:27:52.166Z,5.32
2023-05-06T13:30:20.537Z,6.23
2023-05-06T13:32:48.904Z,6.47
2023-05-06T13:35:18.804Z,7.82
2023-05-06T13:37:47.087Z,7.18
2023-05-06T13:40:15.837Z,6.22
2023-05-06T13:42:44.049Z,5.03
2023-05-06T13:45:12.567Z,6.63
2023-05-06T13:47:42.411Z,5.28
2023-05-06T13:50:11.736Z,6.07
2023-05-06T13:52:41.581Z,7.00
2023-05-06T13:55:10.425Z,5.57
2023-05-06T13:57:38.849Z,5.25
2023-05-06T14:00:08.663Z,7.95
2023-05-06T14:02:37.591Z,5.90
2023-05-06T14:05:06.917Z,5.57
2023-05-06T14:07:35.169Z,6.47
2023-05-06T14:10:05.331Z,5.18
2023-05-06T14:12:33.696Z,5.72
2023-05-06T14:15:02.061Z,6.68
2023-05-06T14:17:31.620Z,7.55
2023-05-06T14:19:59.886Z,5.37
2023-05-06T14:22:28.935Z,6.57
2023-05-06T14:24:57.260Z,5.68
2023-05-06T14:27:29.495Z,6.75
2023-05-06T14:29:59.173Z,6.28
2023-05-06T14:32:27.540Z,4.83
2023-05-06T14:34:56.086Z,5.57
2023-05-06T14:37:24.287Z,5.00
2023-05-06T14:39:52.482Z,5.47
2023-05-06T14:42:20.708Z,5.90
2023-05-06T14:44:50.751Z,5.90
2023-05-06T14:47:19.076Z,7.90
2023-05-06T14:49:47.391Z,6.80
2023-05-06T14:52:15.719Z,6.15
2023-05-06T14:54:44.818Z,10.10
2023-05-06T14:57:13.239Z,5.77
2023-05-06T14:59:41.475Z,5.07
2023-05-06T15:02:11.369Z,6.90
2023-05-06T15:04:39.655Z,6.47
2023-05-06T15:07:08.450Z,7.10
2023-05-06T15:09:37.246Z,5.57
2023-05-06T15:12:05.808Z,6.25
2023-05-06T15:14:34.146Z,6.70
2023-05-06T15:17:02.567Z,5.60
2023-05-06T15:19:32.383Z,5.15
2023-05-06T15:22:00.695Z,6.00
2023-05-06T15:24:29.165Z,5.90
2023-05-06T15:26:57.463Z,5.30
2023-05-06T15:29:26.248Z,5.40
2023-05-06T15:31:54.538Z,7.22
2023-05-06T15:34:22.897Z,5.07
2023-05-06T15:36:54.046Z,6.40
2023-05-06T15:39:22.424Z,4.40
2023-05-06T15:41:50.758Z,4.38
2023-05-06T15:44:20.933Z,5.78
2023-05-06T15:46:49.524Z,6.60
2023-05-06T15:49:48.792Z,5.82
2023-05-06T15:52:07.918Z,6.82
2023-05-06T15:54:37.477Z,6.53
2023-05-06T15:57:07.095Z,6.47
2023-05-06T15:59:35.722Z,7.40
2023-05-06T16:04:35.677Z,7.20
2023-05-06T16:07:04.102Z,8.52
2023-05-06T16:09:33.768Z,5.82
2023-05-06T16:12:02.158Z,6.00
2023-05-06T16:14:30.633Z,8.20
2023-05-06T16:17:00.133Z,6.88
2023-05-06T16:19:30.281Z,6.93
2023-05-06T16:21:58.660Z,7.13
2023-05-06T16:24:27.067Z,6.37
2023-05-06T16:26:58.025Z,5.78
2023-05-06T16:29:26.332Z,6.63
2023-05-06T16:31:55.047Z,7.07
2023-05-06T16:34:23.601Z,6.88
2023-05-06T16:36:52.431Z,6.10
2023-05-06T16:39:20.770Z,6.53
2023-05-06T16:41:49.058Z,6.65
2023-05-06T16:44:18.750Z,6.68
2023-05-06T16:46:47.141Z,6.18
2023-05-06T16:49:15.559Z,6.43
2023-05-06T16:51:43.909Z,7.57
2023-05-06T16:54:12.264Z,6.43
2023-05-06T16:56:51.473Z,8.13
2023-05-06T16:59:22.532Z,6.75
2023-05-06T17:01:51.228Z,6.70
2023-05-06T17:04:19.548Z,7.93
2023-05-06T17:06:47.933Z,6.13
2023-05-06T17:09:16.927Z,7.85
2023-05-06T17:11:45.492Z,5.55
2023-05-06T17:14:14.327Z,6.33
2023-05-06T17:16:45.194Z,5.90
2023-05-06T17:19:13.688Z,6.13
2023-05-06T17:21:42.359Z,8.63
2023-05-06T17:24:10.939Z,7.07
2023-05-06T17:26:40.420Z,6.83
2023-05-06T17:29:08.819Z,6.05
2023-05-06T17:31:37.087Z,6.40
2023-05-06T17:34:06.796Z,6.97
2023-05-06T17:36:35.072Z,7.07
2023-05-06T17:39:04.709Z,6.27
2023-05-06T17:41:33.637Z,7.50
2023-05-06T17:44:02.057Z,7.25
2023-05-06T17:46:31.238Z,7.38
2023-05-06T17:48:59.540Z,6.47
2023-05-06T17:51:29.270Z,6.33
2023-05-06T17:54:01.594Z,6.05
2023-05-06T17:56:29.893Z,6.72
2023-05-06T17:59:02.480Z,7.03
2023-05-06T18:01:30.882Z,8.15
2023-05-06T18:03:59.594Z,7.37
2023-05-06T18:06:29.737Z,8.02
2023-05-06T18:08:57.993Z,7.88
2023-05-06T18:11:26.378Z,7.68
2023-05-06T18:13:54.650Z,7.53
2023-05-06T18:16:23.104Z,5.53
2023-05-06T18:18:51.417Z,6.50
2023-05-06T18:21:19.666Z,7.55
2023-05-06T18:23:51.445Z,7.43
2023-05-06T18:26:39.781Z,6.30
2023-05-06T18:29:10.684Z,8.03
2023-05-06T18:31:39.174Z,8.88
2023-05-06T18:34:07.615Z,6.45
2023-05-06T18:36:36.604Z,6.95
2023-05-06T18:39:07.026Z,7.18
2023-05-06T18:41:35.405Z,7.40
2023-05-06T18:44:04.658Z,7.70
2023-05-06T18:46:33.757Z,8.30
2023-05-06T18:49:02.313Z,7.28
2023-05-06T18:51:32.048Z,6.20
2023-05-06T18:54:00.449Z,8.67
2023-05-06T18:56:30.817Z,8.55
2023-05-06T18:58:59.778Z,8.32
2023-05-06T19:01:28.385Z,8.70
2023-05-06T19:03:56.978Z,8.05
2023-05-06T19:06:25.740Z,8.57
2023-05-06T19:08:54.353Z,8.93
2023-05-06T19:11:22.703Z,8.27
2023-05-06T19:13:53.001Z,7.93
2023-05-06T19:16:22.161Z,9.63
2023-05-06T19:18:50.785Z,8.60
2023-05-06T19:21:19.900Z,8.90
2023-05-06T19:23:48.288Z,9.48
2023-05-06T19:26:16.599Z,8.90
2023-05-06T19:28:44.894Z,7.78
2023-05-06T19:31:15.154Z,9.77
2023-05-06T19:33:44.005Z,9.77
2023-05-06T19:36:12.400Z,8.73
2023-05-06T19:38:40.689Z,10.05
2023-05-06T19:41:10.738Z,9.05
2023-05-06T19:43:43.067Z,8.93
2023-05-06T19:46:12.819Z,8.68
2023-05-06T19:48:42.682Z,8.80
2023-05-06T19:51:11.042Z,8.98
2023-05-06T19:53:39.566Z,7.97
2023-05-06T19:56:11.705Z,8.53
2023-05-06T19:58:40.363Z,7.80
2023-05-06T20:01:09.051Z,7.82
2023-05-06T20:03:37.659Z,7.35
2023-05-06T20:06:07.981Z,7.72
2023-05-06T20:08:36.414Z,7.00
2023-05-06T20:11:05.729Z,8.40
2023-05-06T20:13:34.145Z,6.78
2023-05-06T20:16:02.603Z,9.25
2023-05-06T20:18:31.919Z,8.68
2023-05-06T20:21:00.233Z,8.10
2023-05-06T20:23:31.883Z,8.88
2023-05-06T20:26:00.120Z,11.40
2023-05-06T20:28:28.776Z,8.82
2023-05-06T20:30:59.771Z,10.80
2023-05-06T20:33:28.125Z,8.50
2023-05-06T20:35:56.423Z,8.32
2023-05-06T20:38:26.933Z,9.85
2023-05-06T20:40:58.054Z,10.73
2023-05-06T20:43:26.447Z,9.35
2023-05-06T20:45:54.768Z,10.40
2023-05-06T20:48:23.100Z,12.77
2023-05-06T20:50:54.213Z,11.50
2023-05-06T20:53:22.965Z,12.95
2023-05-06T20:55:51.444Z,10.00
2023-05-06T20:58:21.176Z,11.77
2023-05-06T21:00:50.521Z,11.70
2023-05-06T21:03:19.040Z,12.68
2023-05-06T21:05:47.462Z,12.65
2023-05-06T21:08:16.560Z,14.77
2023-05-06T21:10:44.984Z,15.30
2023-05-06T21:13:13.665Z,15.25
2023-05-06T21:15:44.174Z,14.55
2023-05-06T21:18:12.525Z,15.65
2023-05-06T21:20:40.811Z,18.52
2023-05-06T21:23:09.187Z,17.70
2023-05-06T21:25:37.559Z,14.32
2023-05-06T21:28:06.667Z,17.17
2023-05-06T21:30:36.607Z,16.75
2023-05-06T21:33:08.403Z,18.10
2023-05-06T21:35:37.129Z,15.77
2023-05-06T21:38:05.500Z,15.48
2023-05-06T21:40:33.795Z,16.55
2023-05-06T21:43:02.037Z,18.20
2023-05-06T21:45:30.345Z,21.38
2023-05-06T21:47:58.612Z,16.53
2023-05-06T21:50:28.309Z,22.25
2023-05-06T21:52:56.611Z,17.65
2023-05-06T21:55:27.706Z,18.52
2023-05-06T21:57:56.211Z,16.45
2023-05-06T22:00:24.461Z,16.13
2023-05-06T22:02:53.178Z,15.93
2023-05-06T22:05:21.666Z,15.77
2023-05-06T22:07:51.561Z,18.30
2023-05-06T22:10:20.025Z,21.10
2023-05-06T22:12:48.338Z,16.60
2023-05-06T22:15:16.730Z,18.08
2023-05-06T22:17:45.209Z,17.15
2023-05-06T22:20:15.185Z,17.55
2023-05-06T22:22:44.030Z,16.75
2023-05-06T22:25:14.935Z,18.27
2023-05-06T22:27:43.343Z,16.10
2023-05-06T22:30:13.519Z,15.18
2023-05-06T22:32:43.282Z,17.25
2023-05-06T22:35:12.061Z,17.63
2023-05-06T22:37:40.553Z,18.33
2023-05-06T22:40:10.428Z,19.08
2023-05-06T22:42:40.147Z,17.95
2023-05-06T22:45:10.307Z,16.55
2023-05-06T22:47:38.740Z,18.98
2023-05-06T22:50:09.049Z,17.20
2023-05-06T22:52:38.061Z,17.60
2023-05-06T22:55:09.766Z,17.42
2023-05-06T22:57:39.657Z,17.20
2023-05-06T23:00:12.488Z,18.20
2023-05-06T23:02:41.214Z,19.47
2023-05-06T23:05:10.037Z,17.42
2023-05-06T23:07:38.606Z,17.20
2023-05-06T23:10:07.917Z,15.52
2023-05-06T23:12:36.624Z,15.77
2023-05-06T23:15:07.900Z,19.23
2023-05-06T23:17:36.323Z,15.77
2023-05-06T23:20:05.945Z,17.95
2023-05-06T23:22:34.262Z,18.15
2023-05-06T23:25:02.596Z,16.45
2023-05-06T23:27:30.944Z,17.80
2023-05-06T23:29:59.313Z,16.83
2023-05-06T23:32:29.082Z,17.85
2023-05-06T23:34:57.986Z,17.15
2023-05-06T23:37:26.542Z,17.98
2023-05-06T23:39:54.922Z,17.80
2023-05-06T23:42:25.460Z,18.13
2023-05-06T23:44:54.285Z,15.45
2023-05-06T23:47:24.553Z,17.23
2023-05-06T23:49:54.232Z,17.80
2023-05-06T23:52:22.481Z,18.80
2023-05-06T23:54:50.754Z,17.15
2023-05-06T23:57:19.079Z,17.20
2023-05-06T23:59:47.365Z,16.50
